Time;durP1;ratioP1;P1;durP2;ratioP2;P2;SDS_P1;SDS_P2;PMS_P1;PMS_P2;Temp;Humidity;BMP_temperature;BMP_pressure;BME280_temperature;BME280_humidity;BME280_pressure;Samples;Min_cycle;Max_cycle;Signal;HPM_P1;HPM_P2
2023/04/01 00:00:18;;;;;;;;;;;9.80;74.90;;;;;;4879030;29;19926;-81
2023/04/01 00:02:43;;;;;;;;;;;9.80;74.90;;;;;;4883401;29;19923;-78
2023/04/01 00:05:10;;;;;;;;;;;9.80;74.90;;;;;;4880864;29;19919;-78
2023/04/01 00:07:36;;;;;;;;;;;9.80;74.90;;;;;;4902082;29;20058;-79
2023/04/01 00:10:02;;;;;;;;;;;9.80;74.80;;;;;;4897383;29;19970;-78
2023/04/01 00:12:27;;;;;;;;;;;9.80;74.80;;;;;;4901426;29;20680;-77
2023/04/01 00:14:53;;;;;;;;;;;9.80;74.80;;;;;;4913881;29;19926;-78
2023/04/01 00:17:18;;;;;;;;;;;9.80;74.80;;;;;;4916087;29;20123;-80
2023/04/01 00:19:44;;;;;;;;;;;9.80;74.90;;;;;;4920000;29;19926;-79
2023/04/01 00:22:11;;;;;;;;;;;9.90;74.90;;;;;;4913005;29;19923;-79
2023/04/01 00:24:37;;;;;;;;;;;9.90;75.00;;;;;;4910261;29;19919;-78
2023/04/01 00:27:02;;;;;;;;;;;9.90;75.00;;;;;;4904498;29;19925;-79
2023/04/01 00:29:30;;;;;;;;;;;9.90;74.90;;;;;;4906858;29;20681;-78
2023/04/01 00:31:58;;;;;;;;;;;9.90;74.80;;;;;;4921118;29;19927;-80
2023/04/01 00:34:23;;;;;;;;;;;9.90;74.90;;;;;;4913291;29;19923;-81
2023/04/01 00:36:52;;;;;;;;;;;9.90;74.90;;;;;;4883223;29;19927;-80
2023/04/01 00:39:21;;;;;;;;;;;9.90;74.90;;;;;;4913320;29;19919;-80
2023/04/01 00:41:46;;;;;;;;;;;9.90;74.90;;;;;;4909762;29;19923;-80
2023/04/01 00:44:16;;;;;;;;;;;9.90;74.90;;;;;;4917665;29;19919;-80
2023/04/01 00:46:41;;;;;;;;;;;9.90;74.90;;;;;;4919605;29;20509;-80
2023/04/01 00:49:07;;;;;;;;;;;9.90;74.90;;;;;;4902512;29;20002;-78
2023/04/01 00:51:35;;;;;;;;;;;9.90;74.90;;;;;;4903761;29;19923;-80
2023/04/01 00:54:03;;;;;;;;;;;9.90;74.80;;;;;;4892467;29;19919;-80
2023/04/01 00:56:36;;;;;;;;;;;9.90;74.80;;;;;;4903908;29;20296;-80
2023/04/01 00:59:08;;;;;;;;;;;9.90;74.80;;;;;;4901720;29;19983;-79
2023/04/01 01:01:33;;;;;;;;;;;9.90;74.80;;;;;;4907474;29;20343;-79
2023/04/01 01:04:00;;;;;;;;;;;9.90;74.90;;;;;;4908148;29;19920;-79
2023/04/01 01:06:39;;;;;;;;;;;9.90;74.80;;;;;;4891732;29;19919;-80
2023/04/01 01:09:09;;;;;;;;;;;9.90;74.80;;;;;;4917392;29;19926;-80
2023/04/01 01:11:54;;;;;;;;;;;9.90;74.80;;;;;;4899358;29;19920;-78
2023/04/01 01:14:29;;;;;;;;;;;10.00;74.90;;;;;;4888928;29;20531;-80
2023/04/01 01:16:59;;;;;;;;;;;10.00;74.80;;;;;;4903291;29;19923;-78
2023/04/01 01:19:47;;;;;;;;;;;10.00;74.80;;;;;;4917524;29;19929;-80
2023/04/01 01:22:16;;;;;;;;;;;10.00;74.80;;;;;;4912008;29;19923;-80
2023/04/01 01:25:00;;;;;;;;;;;10.00;74.90;;;;;;4896250;29;20522;-79
2023/04/01 01:27:26;;;;;;;;;;;10.00;74.80;;;;;;4910735;29;19918;-78
2023/04/01 01:29:51;;;;;;;;;;;10.00;74.80;;;;;;4901452;29;19926;-78
2023/04/01 01:32:17;;;;;;;;;;;10.00;74.80;;;;;;4902676;29;20635;-78
2023/04/01 01:34:47;;;;;;;;;;;10.00;74.80;;;;;;4917050;29;19926;-79
2023/04/01 01:37:16;;;;;;;;;;;10.00;74.80;;;;;;4916598;29;20382;-78
2023/04/01 01:39:46;;;;;;;;;;;10.00;74.80;;;;;;4902489;29;20443;-80
2023/04/01 01:42:12;;;;;;;;;;;10.00;74.80;;;;;;4906377;29;20645;-77
2023/04/01 01:44:38;;;;;;;;;;;10.00;74.80;;;;;;4891504;29;19970;-79
2023/04/01 01:47:03;;;;;;;;;;;10.00;74.80;;;;;;4901652;29;19930;-79
2023/04/01 01:49:30;;;;;;;;;;;10.00;75.60;;;;;;4918099;29;20533;-79
2023/04/01 01:51:56;;;;;;;;;;;10.00;74.80;;;;;;4900592;29;19919;-77
2023/04/01 01:54:21;;;;;;;;;;;10.00;74.80;;;;;;4918083;29;19974;-78
2023/04/01 01:56:48;;;;;;;;;;;10.00;74.90;;;;;;4880517;29;19918;-78
2023/04/01 01:59:13;;;;;;;;;;;10.00;74.80;;;;;;4900815;29;19923;-80
2023/04/01 02:01:40;;;;;;;;;;;10.00;74.80;;;;;;4899431;29;19974;-78
2023/04/01 02:04:05;;;;;;;;;;;10.00;74.80;;;;;;4908027;29;19919;-80
2023/04/01 02:06:32;;;;;;;;;;;10.00;74.90;;;;;;4899787;29;19970;-79
2023/04/01 02:09:02;;;;;;;;;;;10.00;74.80;;;;;;4894978;29;19947;-77
2023/04/01 02:11:29;;;;;;;;;;;10.00;74.80;;;;;;4898095;29;19931;-79
2023/04/01 02:13:56;;;;;;;;;;;10.00;74.80;;;;;;4904585;29;19926;-80
2023/04/01 02:16:23;;;;;;;;;;;9.90;74.90;;;;;;4917892;29;19921;-80
2023/04/01 02:18:50;;;;;;;;;;;10.00;74.90;;;;;;4888119;29;20045;-78
2023/04/01 02:21:16;;;;;;;;;;;10.00;75.70;;;;;;4890001;29;19930;-78
2023/04/01 02:23:41;;;;;;;;;;;9.90;74.90;;;;;;4903237;29;19927;-79
2023/04/01 02:26:07;;;;;;;;;;;9.90;74.90;;;;;;4892803;29;19919;-78
2023/04/01 02:28:32;;;;;;;;;;;9.90;74.90;;;;;;4900435;29;19943;-78
2023/04/01 02:30:58;;;;;;;;;;;9.90;74.90;;;;;;4914775;29;19919;-78
2023/04/01 02:33:23;;;;;;;;;;;9.90;74.90;;;;;;4899952;29;20026;-79
2023/04/01 02:35:49;;;;;;;;;;;9.90;74.90;;;;;;4915536;29;20028;-77
2023/04/01 02:38:15;;;;;;;;;;;9.90;75.00;;;;;;4906252;29;20260;-77
2023/04/01 02:40:45;;;;;;;;;;;9.90;75.00;;;;;;4904757;29;19919;-77
2023/04/01 02:43:11;;;;;;;;;;;9.90;74.90;;;;;;4899360;29;19923;-78
2023/04/01 02:45:36;;;;;;;;;;;9.90;75.00;;;;;;4897969;29;20500;-76
2023/04/01 02:48:01;;;;;;;;;;;9.90;74.90;;;;;;4898796;29;19926;-78
2023/04/01 02:50:27;;;;;;;;;;;9.90;74.90;;;;;;4904194;29;19923;-78
2023/04/01 02:52:52;;;;;;;;;;;9.90;75.00;;;;;;4915814;29;20168;-80
2023/04/01 02:55:18;;;;;;;;;;;9.90;75.00;;;;;;4898150;29;19958;-77
2023/04/01 02:57:43;;;;;;;;;;;9.90;75.00;;;;;;4908338;29;20379;-78
2023/04/01 03:00:11;;;;;;;;;;;9.90;74.90;;;;;;4895002;29;19920;-77
2023/04/01 03:02:37;;;;;;;;;;;9.90;74.90;;;;;;4910341;29;19922;-80
2023/04/01 03:05:03;;;;;;;;;;;9.90;75.00;;;;;;4897784;29;20001;-78
2023/04/01 03:07:28;;;;;;;;;;;9.90;74.90;;;;;;4899133;29;20453;-79
2023/04/01 03:09:54;;;;;;;;;;;9.90;75.00;;;;;;4907939;29;20489;-79
2023/04/01 03:12:19;;;;;;;;;;;9.90;75.80;;;;;;4907312;29;19919;-80
2023/04/01 03:14:45;;;;;;;;;;;9.90;74.90;;;;;;4913545;29;19922;-79
2023/04/01 03:17:10;;;;;;;;;;;9.90;74.90;;;;;;4898108;29;20060;-77
2023/04/01 03:19:36;;;;;;;;;;;9.90;75.00;;;;;;4876618;29;19953;-77
2023/04/01 03:22:01;;;;;;;;;;;9.90;74.90;;;;;;4893589;29;19923;-78
2023/04/01 03:24:26;;;;;;;;;;;9.90;74.90;;;;;;4914835;29;19978;-78
2023/04/01 03:26:52;;;;;;;;;;;9.90;74.90;;;;;;4896737;29;20800;-77
2023/04/01 03:29:17;;;;;;;;;;;9.90;74.90;;;;;;4882132;29;19933;-79
2023/04/01 03:31:43;;;;;;;;;;;9.90;74.90;;;;;;4898384;29;20417;-78
2023/04/01 03:34:08;;;;;;;;;;;9.90;75.00;;;;;;4898134;29;19923;-77
2023/04/01 03:36:34;;;;;;;;;;;9.90;74.90;;;;;;4913135;29;19923;-77
2023/04/01 03:38:59;;;;;;;;;;;9.90;75.10;;;;;;4913386;29;19925;-77
2023/04/01 03:41:25;;;;;;;;;;;9.90;74.90;;;;;;4890709;29;19919;-76
2023/04/01 03:43:50;;;;;;;;;;;10.00;75.00;;;;;;4904252;29;19981;-78
2023/04/01 03:46:17;;;;;;;;;;;9.90;74.90;;;;;;4899252;29;19919;-78
2023/04/01 03:48:42;;;;;;;;;;;10.00;75.00;;;;;;4904874;29;20387;-77
2023/04/01 03:51:08;;;;;;;;;;;9.90;74.90;;;;;;4894378;29;19956;-77
2023/04/01 03:53:33;;;;;;;;;;;9.90;74.90;;;;;;4918258;29;20452;-79
2023/04/01 03:55:59;;;;;;;;;;;9.90;74.90;;;;;;4903941;29;19923;-78
2023/04/01 03:58:24;;;;;;;;;;;9.90;74.90;;;;;;4897956;29;19919;-77
2023/04/01 04:00:50;;;;;;;;;;;9.90;74.90;;;;;;4878409;29;19919;-77
2023/04/01 04:03:15;;;;;;;;;;;9.90;74.90;;;;;;4892820;29;20400;-79
2023/04/01 04:05:48;;;;;;;;;;;9.90;74.90;;;;;;4917355;28;20329;-77
2023/04/01 04:08:13;;;;;;;;;;;9.90;74.90;;;;;;4914285;29;19919;-78
2023/04/01 04:10:39;;;;;;;;;;;9.90;74.90;;;;;;4917586;29;19982;-80
2023/04/01 04:13:05;;;;;;;;;;;9.90;74.90;;;;;;4901939;29;19978;-78
2023/04/01 04:15:30;;;;;;;;;;;9.90;74.90;;;;;;4918198;29;19919;-78
2023/04/01 04:17:56;;;;;;;;;;;9.90;74.90;;;;;;4916967;29;19962;-79
2023/04/01 04:20:21;;;;;;;;;;;9.90;74.90;;;;;;4917350;29;19919;-79
2023/04/01 04:22:46;;;;;;;;;;;10.00;74.90;;;;;;4917027;28;20021;-78
2023/04/01 04:25:12;;;;;;;;;;;10.00;74.90;;;;;;4917328;29;19926;-78
2023/04/01 04:27:37;;;;;;;;;;;9.90;74.80;;;;;;4901185;29;19974;-78
2023/04/01 04:30:03;;;;;;;;;;;10.00;74.90;;;;;;4903356;29;19926;-80
2023/04/01 04:32:29;;;;;;;;;;;9.90;74.80;;;;;;4897097;29;19927;-79
2023/04/01 04:34:55;;;;;;;;;;;9.90;74.80;;;;;;4906757;29;19923;-77
2023/04/01 04:37:20;;;;;;;;;;;10.00;74.80;;;;;;4903510;29;19926;-78
2023/04/01 04:39:46;;;;;;;;;;;10.00;74.90;;;;;;4911198;29;19992;-78
2023/04/01 04:42:11;;;;;;;;;;;10.00;74.90;;;;;;4905897;29;20492;-78
2023/04/01 04:44:37;;;;;;;;;;;10.00;74.90;;;;;;4902590;29;20435;-78
2023/04/01 04:47:02;;;;;;;;;;;9.90;74.80;;;;;;4900384;29;20019;-78
2023/04/01 04:49:28;;;;;;;;;;;9.90;74.80;;;;;;4917476;29;20397;-79
2023/04/01 04:51:53;;;;;;;;;;;9.90;74.80;;;;;;4918588;29;19919;-79
2023/04/01 04:54:19;;;;;;;;;;;10.00;74.90;;;;;;4901921;29;20368;-77
2023/04/01 04:56:44;;;;;;;;;;;10.00;74.80;;;;;;4915981;29;19919;-80
2023/04/01 04:59:10;;;;;;;;;;;9.90;74.80;;;;;;4898805;29;20537;-79
2023/04/01 05:01:35;;;;;;;;;;;9.90;74.80;;;;;;4910533;29;19926;-81
2023/04/01 05:04:01;;;;;;;;;;;9.90;74.80;;;;;;4885870;29;19920;-80
2023/04/01 05:06:29;;;;;;;;;;;9.90;74.90;;;;;;4910751;29;20322;-80
2023/04/01 05:08:55;;;;;;;;;;;9.90;74.90;;;;;;4898771;29;19931;-80
2023/04/01 05:11:20;;;;;;;;;;;9.90;74.90;;;;;;4906077;29;19930;-80
2023/04/01 05:13:46;;;;;;;;;;;9.90;75.00;;;;;;4923262;29;19926;-81
2023/04/01 05:16:13;;;;;;;;;;;9.90;75.00;;;;;;4902549;29;19982;-81
2023/04/01 05:18:38;;;;;;;;;;;9.80;75.00;;;;;;4922515;29;20665;-80
2023/04/01 05:21:04;;;;;;;;;;;9.80;75.00;;;;;;4904002;29;19923;-79
2023/04/01 05:23:30;;;;;;;;;;;9.80;75.00;;;;;;4903404;29;19983;-80
2023/04/01 05:25:56;;;;;;;;;;;9.80;75.00;;;;;;4906147;29;20002;-80
2023/04/01 05:28:22;;;;;;;;;;;9.80;75.00;;;;;;4905579;29;19965;-80
2023/04/01 05:30:47;;;;;;;;;;;9.80;75.00;;;;;;4913821;29;19950;-81
2023/04/01 05:33:13;;;;;;;;;;;9.80;75.00;;;;;;4904303;29;19923;-81
2023/04/01 05:35:39;;;;;;;;;;;9.80;75.00;;;;;;4919703;29;20306;-80
2023/04/01 05:38:04;;;;;;;;;;;9.80;75.00;;;;;;4903669;29;19915;-79
2023/04/01 05:40:30;;;;;;;;;;;9.80;75.00;;;;;;4910713;29;19927;-81
2023/04/01 05:42:55;;;;;;;;;;;9.80;75.00;;;;;;4901994;29;19919;-81
2023/04/01 05:45:21;;;;;;;;;;;9.80;75.10;;;;;;4881817;29;20738;-78
2023/04/01 05:47:46;;;;;;;;;;;9.80;75.10;;;;;;4897358;29;19919;-77
2023/04/01 05:50:12;;;;;;;;;;;9.80;75.10;;;;;;4913614;29;20454;-78
2023/04/01 05:52:37;;;;;;;;;;;9.70;75.00;;;;;;4917127;29;19919;-77
2023/04/01 05:55:03;;;;;;;;;;;9.80;75.10;;;;;;4900286;29;20013;-80
2023/04/01 05:57:29;;;;;;;;;;;9.80;75.10;;;;;;4904277;29;20378;-78
2023/04/01 05:59:54;;;;;;;;;;;9.80;75.10;;;;;;4901662;29;20067;-79
2023/04/01 06:02:19;;;;;;;;;;;9.80;75.00;;;;;;4913616;29;19954;-79
2023/04/01 06:04:45;;;;;;;;;;;9.80;75.10;;;;;;4915231;29;19923;-77
2023/04/01 06:07:11;;;;;;;;;;;9.70;75.00;;;;;;4904229;28;19925;-79
2023/04/01 06:09:37;;;;;;;;;;;9.80;75.20;;;;;;4884784;29;20005;-79
2023/04/01 06:12:20;;;;;;;;;;;9.70;75.20;;;;;;4907602;29;20678;-79
2023/04/01 06:14:52;;;;;;;;;;;9.80;75.10;;;;;;4904285;29;19926;-80
2023/04/01 06:17:20;;;;;;;;;;;9.80;75.20;;;;;;4900447;29;19915;-76
2023/04/01 06:20:02;;;;;;;;;;;9.80;75.20;;;;;;4902580;28;19993;-80
2023/04/01 06:22:31;;;;;;;;;;;9.80;75.20;;;;;;4913063;29;19967;-79
2023/04/01 06:25:00;;;;;;;;;;;9.80;75.20;;;;;;4900418;29;21641;-79
2023/04/01 06:27:41;;;;;;;;;;;9.80;75.20;;;;;;4913084;29;19919;-79
2023/04/01 06:30:29;;;;;;;;;;;9.80;75.10;;;;;;4902128;29;19967;-78
2023/04/01 06:32:58;;;;;;;;;;;9.80;75.10;;;;;;4895760;29;19927;-80
2023/04/01 06:35:36;;;;;;;;;;;9.80;75.20;;;;;;4898396;29;19927;-79
2023/04/01 06:38:12;;;;;;;;;;;9.90;75.20;;;;;;5012135;27;19936;-77
2023/04/01 06:40:40;;;;;;;;;;;9.90;75.20;;;;;;4979194;28;19928;-79
2023/04/01 06:43:21;;;;;;;;;;;9.90;75.20;;;;;;4989363;28;20578;-80
2023/04/01 06:45:53;;;;;;;;;;;9.90;75.20;;;;;;4974382;28;20546;-79
2023/04/01 06:48:22;;;;;;;;;;;9.90;75.10;;;;;;5000226;28;19926;-80
2023/04/01 06:50:54;;;;;;;;;;;9.90;75.20;;;;;;4973097;28;20461;-79
2023/04/01 06:53:38;;;;;;;;;;;10.00;75.20;;;;;;4981596;28;19933;-80
2023/04/01 06:56:07;;;;;;;;;;;10.00;75.20;;;;;;4979856;28;19929;-80
2023/04/01 06:58:40;;;;;;;;;;;10.00;75.20;;;;;;5000802;28;19922;-80
2023/04/01 07:01:10;;;;;;;;;;;10.00;75.20;;;;;;4998290;28;19932;-79
2023/04/01 07:03:36;;;;;;;;;;;10.10;75.30;;;;;;4972091;28;20443;-79
2023/04/01 07:06:02;;;;;;;;;;;10.00;75.10;;;;;;4982423;28;19972;-79
2023/04/01 07:08:28;;;;;;;;;;;10.10;75.20;;;;;;4986349;28;19948;-78
2023/04/01 07:10:56;;;;;;;;;;;10.10;75.20;;;;;;5004006;28;19926;-78
2023/04/01 07:13:24;;;;;;;;;;;10.10;75.20;;;;;;4986263;28;19925;-78
2023/04/01 07:16:19;;;;;;;;;;;10.10;75.20;;;;;;5000414;28;19928;-80
2023/04/01 07:18:46;;;;;;;;;;;10.10;75.20;;;;;;4991867;28;19921;-79
2023/04/01 07:21:17;;;;;;;;;;;10.20;75.20;;;;;;4966004;28;19968;-79
2023/04/01 07:23:42;;;;;;;;;;;10.20;75.20;;;;;;4986406;28;19922;-79
2023/04/01 07:26:14;;;;;;;;;;;10.20;75.20;;;;;;5006864;28;19933;-80
2023/04/01 07:28:40;;;;;;;;;;;10.20;75.20;;;;;;4990338;28;19956;-80
2023/04/01 07:31:17;;;;;;;;;;;10.20;75.10;;;;;;4978738;28;19965;-79
2023/04/01 07:33:45;;;;;;;;;;;10.30;75.30;;;;;;4976135;28;20013;-77
2023/04/01 07:36:14;;;;;;;;;;;10.30;75.30;;;;;;4978733;28;21028;-79
2023/04/01 07:39:15;;;;;;;;;;;10.30;75.20;;;;;;4985265;28;19922;-81
2023/04/01 07:41:43;;;;;;;;;;;10.30;75.20;;;;;;4995004;28;19932;-80
2023/04/01 07:44:15;;;;;;;;;;;10.30;75.20;;;;;;4967146;28;19933;-80
2023/04/01 07:46:45;;;;;;;;;;;10.30;75.20;;;;;;4966444;28;19922;-81
2023/04/01 07:49:16;;;;;;;;;;;10.40;75.20;;;;;;4968116;28;19926;-79
2023/04/01 07:51:59;;;;;;;;;;;10.40;75.20;;;;;;4963423;28;19921;-79
2023/04/01 07:54:43;;;;;;;;;;;10.40;75.20;;;;;;4966055;28;19929;-80
2023/04/01 07:57:19;;;;;;;;;;;10.40;75.20;;;;;;4954356;28;19930;-79
2023/04/01 07:59:47;;;;;;;;;;;10.40;75.20;;;;;;4951168;28;20541;-80
2023/04/01 08:02:34;;;;;;;;;;;10.40;75.20;;;;;;4969859;28;19928;-78
2023/04/01 08:05:03;;;;;;;;;;;10.40;75.20;;;;;;4934227;28;20709;-80
2023/04/01 08:07:51;;;;;;;;;;;10.50;75.30;;;;;;4959263;28;19922;-80
2023/04/01 08:10:16;;;;;;;;;;;10.40;75.20;;;;;;4969142;28;20359;-80
2023/04/01 08:12:55;;;;;;;;;;;10.40;75.20;;;;;;4977273;28;19921;-80
2023/04/01 08:15:30;;;;;;;;;;;10.40;75.30;;;;;;4984004;28;19925;-79
2023/04/01 08:18:04;;;;;;;;;;;10.40;75.30;;;;;;4975006;28;20028;-79
2023/04/01 08:20:36;;;;;;;;;;;10.50;75.30;;;;;;4988937;28;19922;-80
2023/04/01 08:23:13;;;;;;;;;;;10.50;75.30;;;;;;4973543;28;19925;-78
2023/04/01 08:25:44;;;;;;;;;;;10.50;75.30;;;;;;4968472;28;19917;-79
2023/04/01 08:28:24;;;;;;;;;;;10.50;75.30;;;;;;4986446;28;20853;-80
2023/04/01 08:30:52;;;;;;;;;;;10.50;75.30;;;;;;4973310;28;19926;-80
2023/04/01 08:33:18;;;;;;;;;;;10.50;75.30;;;;;;4952194;28;21306;-80
2023/04/01 08:35:58;;;;;;;;;;;10.60;75.40;;;;;;4938410;28;19923;-79
2023/04/01 08:38:47;;;;;;;;;;;10.50;75.40;;;;;;4970963;28;20404;-80
2023/04/01 08:41:31;;;;;;;;;;;10.50;75.30;;;;;;4960414;28;20045;-80
2023/04/01 08:44:03;;;;;;;;;;;10.60;75.40;;;;;;4987866;28;19925;-81
2023/04/01 08:46:37;;;;;;;;;;;10.60;75.50;;;;;;4979564;28;19926;-81
2023/04/01 08:49:09;;;;;;;;;;;10.60;75.50;;;;;;4992490;28;19922;-79
2023/04/01 08:51:37;;;;;;;;;;;10.60;75.30;;;;;;4984743;28;19972;-78
2023/04/01 08:54:05;;;;;;;;;;;10.60;75.40;;;;;;4984244;28;19980;-78
2023/04/01 08:56:34;;;;;;;;;;;10.70;75.40;;;;;;4970593;28;19948;-80
2023/04/01 08:59:14;;;;;;;;;;;10.70;75.40;;;;;;4957173;28;19923;-80
2023/04/01 09:01:48;;;;;;;;;;;10.70;75.40;;;;;;4970491;28;20747;-79
2023/04/01 09:04:32;;;;;;;;;;;10.70;75.40;;;;;;4955184;28;19922;-78
2023/04/01 09:07:10;;;;;;;;;;;10.70;75.40;;;;;;4965472;28;20029;-80
2023/04/01 09:09:54;;;;;;;;;;;10.80;75.40;;;;;;4946055;28;20633;-78
2023/04/01 09:12:26;;;;;;;;;;;10.80;75.40;;;;;;4956967;28;19922;-81
2023/04/01 09:14:51;;;;;;;;;;;10.90;76.30;;;;;;4956964;28;19926;-80
2023/04/01 09:17:31;;;;;;;;;;;10.90;75.50;;;;;;4958595;28;19926;-80
2023/04/01 09:20:15;;;;;;;;;;;10.90;75.30;;;;;;4955637;28;20017;-78
2023/04/01 09:22:55;;;;;;;;;;;11.00;75.30;;;;;;4955576;28;20738;-80
2023/04/01 09:25:26;;;;;;;;;;;11.10;75.30;;;;;;4954490;28;19965;-79
2023/04/01 09:27:58;;;;;;;;;;;11.10;75.30;;;;;;4958641;28;19918;-81
2023/04/01 09:30:37;;;;;;;;;;;11.10;75.20;;;;;;4951854;28;19966;-81
2023/04/01 09:33:10;;;;;;;;;;;11.20;75.30;;;;;;4943328;28;20557;-80
2023/04/01 09:35:38;;;;;;;;;;;11.20;75.30;;;;;;4963746;28;19960;-81
2023/04/01 09:38:17;;;;;;;;;;;11.20;75.30;;;;;;4972966;28;19954;-80
2023/04/01 09:41:09;;;;;;;;;;;11.20;75.20;;;;;;4950204;28;19952;-79
2023/04/01 09:43:37;;;;;;;;;;;11.30;75.30;;;;;;4985563;28;20012;-78
2023/04/01 09:46:13;;;;;;;;;;;11.30;75.30;;;;;;4971352;28;19984;-79
2023/04/01 09:48:39;;;;;;;;;;;11.30;75.30;;;;;;4973166;28;20012;-79
2023/04/01 09:51:20;;;;;;;;;;;11.30;75.20;;;;;;4989005;28;19990;-80
2023/04/01 09:53:53;;;;;;;;;;;11.40;75.20;;;;;;4984527;28;19922;-80
2023/04/01 09:56:37;;;;;;;;;;;11.40;75.30;;;;;;4971354;28;19934;-80
2023/04/01 09:59:21;;;;;;;;;;;11.40;75.30;;;;;;4973795;28;20519;-80
2023/04/01 10:01:46;;;;;;;;;;;11.50;75.30;;;;;;4979796;28;19921;-80
2023/04/01 10:04:24;;;;;;;;;;;11.50;75.30;;;;;;4974065;28;19929;-81
2023/04/01 10:06:55;;;;;;;;;;;11.50;75.30;;;;;;4972986;28;19984;-79
2023/04/01 10:09:26;;;;;;;;;;;11.60;75.30;;;;;;4975540;28;19922;-78
2023/04/01 10:11:56;;;;;;;;;;;11.60;75.40;;;;;;4975167;28;19922;-80
2023/04/01 10:14:22;;;;;;;;;;;11.70;75.20;;;;;;4959847;28;20292;-80
2023/04/01 10:17:06;;;;;;;;;;;11.70;75.20;;;;;;4975849;28;19921;-78
2023/04/01 10:19:37;;;;;;;;;;;11.80;75.20;;;;;;4974295;28;20556;-80
2023/04/01 10:22:21;;;;;;;;;;;11.90;75.10;;;;;;4965671;28;19919;-80
2023/04/01 10:24:52;;;;;;;;;;;11.90;75.10;;;;;;4956688;28;19946;-80
2023/04/01 10:27:36;;;;;;;;;;;11.90;75.00;;;;;;4957892;28;20080;-78
2023/04/01 10:30:02;;;;;;;;;;;12.00;75.00;;;;;;4953676;28;20002;-80
2023/04/01 10:32:31;;;;;;;;;;;12.00;75.00;;;;;;4946604;28;20555;-79
2023/04/01 10:34:56;;;;;;;;;;;12.00;75.00;;;;;;4938776;28;19978;-79
2023/04/01 10:37:41;;;;;;;;;;;12.00;75.00;;;;;;4960386;28;19934;-78
2023/04/01 10:40:06;;;;;;;;;;;12.10;75.00;;;;;;4958410;28;20013;-79
2023/04/01 10:42:32;;;;;;;;;;;12.10;75.00;;;;;;4971047;28;20005;-79
2023/04/01 10:45:00;;;;;;;;;;;12.10;75.00;;;;;;4954130;28;19927;-79
2023/04/01 10:47:44;;;;;;;;;;;12.10;75.00;;;;;;4958166;28;19930;-80
2023/04/01 10:50:25;;;;;;;;;;;12.10;75.00;;;;;;4961842;28;19922;-80
2023/04/01 10:52:50;;;;;;;;;;;12.20;75.10;;;;;;4948576;28;20820;-79
2023/04/01 10:55:25;;;;;;;;;;;12.20;75.00;;;;;;4962426;28;19926;-80
2023/04/01 10:57:58;;;;;;;;;;;12.30;75.00;;;;;;4964033;28;19926;-81
2023/04/01 11:00:42;;;;;;;;;;;12.40;75.20;;;;;;4964199;28;19946;-79
2023/04/01 11:03:08;;;;;;;;;;;12.40;75.00;;;;;;4956666;28;19921;-80
2023/04/01 11:05:52;;;;;;;;;;;12.50;75.00;;;;;;4966345;28;19926;-79
2023/04/01 11:08:24;;;;;;;;;;;12.50;74.90;;;;;;4946885;28;19925;-79
2023/04/01 11:10:59;;;;;;;;;;;12.50;74.80;;;;;;4967844;28;19918;-81
2023/04/01 11:13:27;;;;;;;;;;;12.50;74.80;;;;;;4953373;28;19918;-79
2023/04/01 11:15:53;;;;;;;;;;;12.50;74.80;;;;;;4953296;28;19918;-80
2023/04/01 11:18:37;;;;;;;;;;;12.50;74.80;;;;;;4950342;28;19918;-81
2023/04/01 11:21:11;;;;;;;;;;;12.50;74.80;;;;;;4963206;28;20519;-81
2023/04/01 11:23:45;;;;;;;;;;;12.60;74.80;;;;;;4955537;28;20665;-78
2023/04/01 11:26:14;;;;;;;;;;;12.50;74.80;;;;;;4955450;28;19926;-77
2023/04/01 11:28:45;;;;;;;;;;;12.50;74.80;;;;;;4967154;28;21480;-80
2023/04/01 11:31:23;;;;;;;;;;;12.60;74.90;;;;;;4955601;28;20366;-81
2023/04/01 11:33:57;;;;;;;;;;;12.60;74.80;;;;;;4963152;28;19922;-79
2023/04/01 11:36:30;;;;;;;;;;;12.60;74.80;;;;;;4962670;28;19930;-81
2023/04/01 11:39:14;;;;;;;;;;;12.60;74.80;;;;;;4971426;28;20590;-81
2023/04/01 11:41:45;;;;;;;;;;;12.60;74.70;;;;;;4956828;28;19922;-81
2023/04/01 11:44:18;;;;;;;;;;;12.70;74.70;;;;;;4932009;28;19929;-80
2023/04/01 11:46:52;;;;;;;;;;;12.70;74.70;;;;;;4952302;28;19926;-79
2023/04/01 11:49:40;;;;;;;;;;;12.70;74.80;;;;;;4957984;28;19918;-79
2023/04/01 11:52:05;;;;;;;;;;;12.70;74.80;;;;;;4951829;28;19961;-79
2023/04/01 11:54:31;;;;;;;;;;;12.70;74.80;;;;;;4955156;28;20518;-78
2023/04/01 11:56:56;;;;;;;;;;;12.70;74.80;;;;;;4950888;28;19930;-80
2023/04/01 11:59:40;;;;;;;;;;;12.70;74.70;;;;;;4972087;28;19923;-81
2023/04/01 12:02:09;;;;;;;;;;;12.80;74.90;;;;;;4959189;28;19926;-82
2023/04/01 12:04:54;;;;;;;;;;;12.80;74.80;;;;;;4955945;28;19914;-79
2023/04/01 12:07:21;;;;;;;;;;;12.80;74.80;;;;;;4954879;28;19919;-81
2023/04/01 12:10:05;;;;;;;;;;;12.80;75.00;;;;;;4968721;28;20468;-79
2023/04/01 12:12:48;;;;;;;;;;;12.80;74.70;;;;;;4987434;28;19929;-80
2023/04/01 12:15:29;;;;;;;;;;;12.80;74.80;;;;;;4977650;28;19918;-79
2023/04/01 12:18:13;;;;;;;;;;;12.80;74.70;;;;;;4971972;28;19937;-81
2023/04/01 12:20:54;;;;;;;;;;;12.80;74.70;;;;;;4986245;28;19968;-79
2023/04/01 12:23:20;;;;;;;;;;;12.90;74.90;;;;;;4985890;28;19926;-80
2023/04/01 12:26:04;;;;;;;;;;;12.90;74.90;;;;;;4990456;28;19921;-81
2023/04/01 12:28:39;;;;;;;;;;;12.90;75.00;;;;;;4988475;28;19951;-80
2023/04/01 12:31:13;;;;;;;;;;;12.90;74.70;;;;;;4987161;28;19922;-80
2023/04/01 12:33:52;;;;;;;;;;;12.90;74.70;;;;;;4992170;28;20405;-80
2023/04/01 12:36:30;;;;;;;;;;;12.90;74.70;;;;;;4983277;28;19930;-81
2023/04/01 12:38:55;;;;;;;;;;;12.90;74.70;;;;;;4988650;28;19952;-80
2023/04/01 12:41:30;;;;;;;;;;;12.90;74.70;;;;;;4986580;28;19966;-81
2023/04/01 12:44:09;;;;;;;;;;;12.90;74.60;;;;;;4950101;28;20072;-81
2023/04/01 12:46:46;;;;;;;;;;;12.90;74.70;;;;;;4948730;28;19958;-81
2023/04/01 12:49:31;;;;;;;;;;;12.90;74.80;;;;;;4956318;28;19977;-77
2023/04/01 12:52:23;;;;;;;;;;;12.90;74.80;;;;;;4963689;28;19926;-80
2023/04/01 12:54:55;;;;;;;;;;;12.90;74.80;;;;;;4971517;28;19922;-79
2023/04/01 12:57:39;;;;;;;;;;;13.00;74.80;;;;;;4981280;28;19977;-79
2023/04/01 13:00:24;;;;;;;;;;;13.00;74.80;;;;;;4976963;28;19928;-78
2023/04/01 13:02:57;;;;;;;;;;;13.00;74.80;;;;;;4978289;28;19928;-79
2023/04/01 13:05:22;;;;;;;;;;;13.00;74.70;;;;;;4985446;28;20576;-79
2023/04/01 13:07:57;;;;;;;;;;;13.10;74.90;;;;;;4975340;28;19926;-79
2023/04/01 13:10:32;;;;;;;;;;;13.10;74.70;;;;;;4970966;28;20025;-80
2023/04/01 13:13:06;;;;;;;;;;;13.10;74.60;;;;;;4974624;28;19957;-80
2023/04/01 13:16:01;;;;;;;;;;;13.10;74.60;;;;;;4979871;28;20297;-79
2023/04/01 13:18:29;;;;;;;;;;;13.10;74.60;;;;;;4969444;28;19993;-81
2023/04/01 13:21:05;;;;;;;;;;;13.10;74.90;;;;;;4974573;28;19925;-79
2023/04/01 13:23:53;;;;;;;;;;;13.10;74.80;;;;;;4969569;28;19969;-80
2023/04/01 13:26:29;;;;;;;;;;;13.10;74.80;;;;;;4968833;28;19962;-79
2023/04/01 13:28:58;;;;;;;;;;;13.00;74.80;;;;;;4982122;28;19957;-80
2023/04/01 13:31:26;;;;;;;;;;;13.10;74.90;;;;;;4974021;28;19922;-80
2023/04/01 13:34:13;;;;;;;;;;;13.00;74.80;;;;;;4974871;28;19925;-79
2023/04/01 13:36:44;;;;;;;;;;;13.00;74.80;;;;;;4971112;28;19988;-80
2023/04/01 13:39:10;;;;;;;;;;;13.00;74.90;;;;;;4955793;28;19984;-77
2023/04/01 13:41:38;;;;;;;;;;;13.00;74.90;;;;;;4981376;28;19926;-79
2023/04/01 13:44:09;;;;;;;;;;;13.00;74.90;;;;;;4973043;28;19933;-80
2023/04/01 13:46:38;;;;;;;;;;;13.00;74.90;;;;;;4984623;28;20753;-79
2023/04/01 13:49:07;;;;;;;;;;;13.00;74.80;;;;;;4986476;28;19980;-79
2023/04/01 13:51:50;;;;;;;;;;;13.00;74.80;;;;;;4962340;28;19961;-80
2023/04/01 13:54:19;;;;;;;;;;;13.00;74.80;;;;;;4975003;28;19922;-80
2023/04/01 13:57:00;;;;;;;;;;;13.00;74.80;;;;;;4967770;28;19927;-80
2023/04/01 13:59:32;;;;;;;;;;;13.10;74.90;;;;;;4964334;28;19922;-78
2023/04/01 14:02:00;;;;;;;;;;;13.00;74.80;;;;;;4927890;28;19918;-80
2023/04/01 14:04:44;;;;;;;;;;;13.00;74.80;;;;;;4945487;28;20022;-80
2023/04/01 14:07:18;;;;;;;;;;;13.00;74.90;;;;;;4950120;28;19952;-79
2023/04/01 14:10:02;;;;;;;;;;;13.00;74.90;;;;;;4960456;28;19923;-81
2023/04/01 14:12:46;;;;;;;;;;;13.00;75.00;;;;;;4923732;28;21513;-81
2023/04/01 14:15:23;;;;;;;;;;;13.00;75.00;;;;;;4949471;28;19922;-80
2023/04/01 14:17:51;;;;;;;;;;;13.00;74.90;;;;;;4966922;28;20471;-80
2023/04/01 14:20:48;;;;;;;;;;;13.00;75.00;;;;;;4953580;28;19961;-80
2023/04/01 14:23:17;;;;;;;;;;;13.00;75.00;;;;;;4991739;28;19928;-80
2023/04/01 14:25:46;;;;;;;;;;;12.90;74.90;;;;;;4981350;28;19981;-80
2023/04/01 14:28:14;;;;;;;;;;;13.00;75.00;;;;;;4985940;28;19922;-79
2023/04/01 14:30:55;;;;;;;;;;;13.00;75.00;;;;;;4968517;28;19981;-79
2023/04/01 14:33:39;;;;;;;;;;;12.90;74.90;;;;;;4978786;28;20613;-79
2023/04/01 14:36:07;;;;;;;;;;;12.90;74.90;;;;;;4971934;28;19933;-81
2023/04/01 14:38:39;;;;;;;;;;;12.90;74.90;;;;;;4969716;28;20066;-77
2023/04/01 14:41:17;;;;;;;;;;;12.90;74.90;;;;;;4959842;28;20009;-81
2023/04/01 14:43:46;;;;;;;;;;;12.90;75.00;;;;;;4953396;28;19929;-79